sensor_id;sensor_type;location;lat;lon;timestamp;temperature;humidity
74946;HTU21D;63509;45.250;38.102;2023-04-24T00:00:29;11.69;73.80
74946;HTU21D;63509;45.250;38.102;2023-04-24T00:02:55;11.70;73.76
74946;HTU21D;63509;45.250;38.102;2023-04-24T00:05:22;11.69;73.73
74946;HTU21D;63509;45.250;38.102;2023-04-24T00:07:48;11.64;73.67
74946;HTU21D;63509;45.250;38.102;2023-04-24T00:10:14;11.63;73.66
74946;HTU21D;63509;45.250;38.102;2023-04-24T00:12:40;11.61;73.70
74946;HTU21D;63509;45.250;38.102;2023-04-24T00:15:07;11.57;73.70
74946;HTU21D;63509;45.250;38.102;2023-04-24T00:17:33;11.56;73.70
74946;HTU21D;63509;45.250;38.102;2023-04-24T00:19:59;11.51;73.64
74946;HTU21D;63509;45.250;38.102;2023-04-24T00:22:27;11.47;73.67
74946;HTU21D;63509;45.250;38.102;2023-04-24T00:24:54;11.41;73.69
74946;HTU21D;63509;45.250;38.102;2023-04-24T00:27:20;11.39;73.75
74946;HTU21D;63509;45.250;38.102;2023-04-24T00:29:46;11.36;73.78
74946;HTU21D;63509;45.250;38.102;2023-04-24T00:32:13;11.32;73.80
74946;HTU21D;63509;45.250;38.102;2023-04-24T00:34:39;11.27;73.81
74946;HTU21D;63509;45.250;38.102;2023-04-24T00:37:05;11.27;73.86
74946;HTU21D;63509;45.250;38.102;2023-04-24T00:39:32;11.25;73.90
74946;HTU21D;63509;45.250;38.102;2023-04-24T00:41:58;11.25;73.96
74946;HTU21D;63509;45.250;38.102;2023-04-24T00:44:25;11.22;73.92
74946;HTU21D;63509;45.250;38.102;2023-04-24T00:46:51;11.20;73.93
74946;HTU21D;63509;45.250;38.102;2023-04-24T00:49:21;11.17;73.96
74946;HTU21D;63509;45.250;38.102;2023-04-24T00:51:47;11.14;73.99
74946;HTU21D;63509;45.250;38.102;2023-04-24T00:54:15;11.12;74.06
74946;HTU21D;63509;45.250;38.102;2023-04-24T00:56:42;11.12;74.09
74946;HTU21D;63509;45.250;38.102;2023-04-24T00:59:09;11.10;74.09
74946;HTU21D;63509;45.250;38.102;2023-04-24T01:01:36;11.08;74.06
74946;HTU21D;63509;45.250;38.102;2023-04-24T01:04:03;11.07;74.12
74946;HTU21D;63509;45.250;38.102;2023-04-24T01:06:29;11.04;74.11
74946;HTU21D;63509;45.250;38.102;2023-04-24T01:08:58;11.03;74.13
74946;HTU21D;63509;45.250;38.102;2023-04-24T01:11:25;11.01;74.17
74946;HTU21D;63509;45.250;38.102;2023-04-24T01:13:51;10.99;74.21
74946;HTU21D;63509;45.250;38.102;2023-04-24T01:16:18;10.97;74.22
74946;HTU21D;63509;45.250;38.102;2023-04-24T01:18:47;10.97;74.25
74946;HTU21D;63509;45.250;38.102;2023-04-24T01:21:16;10.95;74.22
74946;HTU21D;63509;45.250;38.102;2023-04-24T01:23:45;10.95;74.22
74946;HTU21D;63509;45.250;38.102;2023-04-24T01:26:13;10.92;74.26
74946;HTU21D;63509;45.250;38.102;2023-04-24T01:28:40;10.88;74.26
74946;HTU21D;63509;45.250;38.102;2023-04-24T01:31:06;10.86;74.28
74946;HTU21D;63509;45.250;38.102;2023-04-24T01:33:32;10.86;74.29
74946;HTU21D;63509;45.250;38.102;2023-04-24T01:35:58;10.85;74.30
74946;HTU21D;63509;45.250;38.102;2023-04-24T01:38:25;10.83;74.29
74946;HTU21D;63509;45.250;38.102;2023-04-24T01:40:52;10.81;74.33
74946;HTU21D;63509;45.250;38.102;2023-04-24T01:43:18;10.81;74.37
74946;HTU21D;63509;45.250;38.102;2023-04-24T01:45:45;10.80;74.36
74946;HTU21D;63509;45.250;38.102;2023-04-24T01:48:12;10.78;74.38
74946;HTU21D;63509;45.250;38.102;2023-04-24T01:50:38;10.77;74.39
74946;HTU21D;63509;45.250;38.102;2023-04-24T01:53:04;10.75;74.38
74946;HTU21D;63509;45.250;38.102;2023-04-24T01:55:30;10.75;74.39
74946;HTU21D;63509;45.250;38.102;2023-04-24T01:57:57;10.73;74.44
74946;HTU21D;63509;45.250;38.102;2023-04-24T02:00:25;10.72;74.44
74946;HTU21D;63509;45.250;38.102;2023-04-24T02:02:52;10.70;74.44
74946;HTU21D;63509;45.250;38.102;2023-04-24T02:05:18;10.66;74.46
74946;HTU21D;63509;45.250;38.102;2023-04-24T02:07:44;10.66;74.48
74946;HTU21D;63509;45.250;38.102;2023-04-24T02:10:10;10.63;74.46
74946;HTU21D;63509;45.250;38.102;2023-04-24T02:12:41;10.57;74.49
74946;HTU21D;63509;45.250;38.102;2023-04-24T02:15:07;10.53;74.52
74946;HTU21D;63509;45.250;38.102;2023-04-24T02:17:36;10.50;74.56
74946;HTU21D;63509;45.250;38.102;2023-04-24T02:20:04;10.45;74.64
74946;HTU21D;63509;45.250;38.102;2023-04-24T02:22:31;10.41;74.62
74946;HTU21D;63509;45.250;38.102;2023-04-24T02:25:01;10.40;74.71
74946;HTU21D;63509;45.250;38.102;2023-04-24T02:27:27;10.39;74.73
74946;HTU21D;63509;45.250;38.102;2023-04-24T02:29:53;10.38;74.73
74946;HTU21D;63509;45.250;38.102;2023-04-24T02:32:19;10.36;74.76
74946;HTU21D;63509;45.250;38.102;2023-04-24T02:34:45;10.35;74.76
74946;HTU21D;63509;45.250;38.102;2023-04-24T02:37:11;10.31;74.79
74946;HTU21D;63509;45.250;38.102;2023-04-24T02:39:37;10.28;74.86
74946;HTU21D;63509;45.250;38.102;2023-04-24T02:42:03;10.27;74.89
74946;HTU21D;63509;45.250;38.102;2023-04-24T02:44:30;10.24;74.92
74946;HTU21D;63509;45.250;38.102;2023-04-24T02:46:56;10.23;74.99
74946;HTU21D;63509;45.250;38.102;2023-04-24T02:49:22;10.23;75.05
74946;HTU21D;63509;45.250;38.102;2023-04-24T02:51:48;10.23;75.08
74946;HTU21D;63509;45.250;38.102;2023-04-24T02:54:14;10.24;75.12
74946;HTU21D;63509;45.250;38.102;2023-04-24T02:56:40;10.26;75.16
74946;HTU21D;63509;45.250;38.102;2023-04-24T02:59:07;10.27;75.15
74946;HTU21D;63509;45.250;38.102;2023-04-24T03:01:34;10.28;75.16
74946;HTU21D;63509;45.250;38.102;2023-04-24T03:04:00;10.30;75.17
74946;HTU21D;63509;45.250;38.102;2023-04-24T03:06:26;10.31;75.18
74946;HTU21D;63509;45.250;38.102;2023-04-24T03:08:52;10.31;75.20
74946;HTU21D;63509;45.250;38.102;2023-04-24T03:11:19;10.33;75.22
74946;HTU21D;63509;45.250;38.102;2023-04-24T03:13:45;10.34;75.21
74946;HTU21D;63509;45.250;38.102;2023-04-24T03:16:11;10.35;75.21
74946;HTU21D;63509;45.250;38.102;2023-04-24T03:18:37;10.37;75.15
74946;HTU21D;63509;45.250;38.102;2023-04-24T03:21:07;10.37;75.12
74946;HTU21D;63509;45.250;38.102;2023-04-24T03:23:33;10.37;75.12
74946;HTU21D;63509;45.250;38.102;2023-04-24T03:26:00;10.38;75.09
74946;HTU21D;63509;45.250;38.102;2023-04-24T03:28:26;10.38;75.09
74946;HTU21D;63509;45.250;38.102;2023-04-24T03:30:58;10.40;75.10
74946;HTU21D;63509;45.250;38.102;2023-04-24T03:33:26;10.40;75.09
74946;HTU21D;63509;45.250;38.102;2023-04-24T03:36:01;10.41;75.14
74946;HTU21D;63509;45.250;38.102;2023-04-24T03:38:35;10.43;75.15
74946;HTU21D;63509;45.250;38.102;2023-04-24T03:41:20;10.46;75.20
74946;HTU21D;63509;45.250;38.102;2023-04-24T03:43:50;10.50;75.21
74946;HTU21D;63509;45.250;38.102;2023-04-24T03:46:16;10.54;75.30
74946;HTU21D;63509;45.250;38.102;2023-04-24T03:48:56;10.57;75.31
74946;HTU21D;63509;45.250;38.102;2023-04-24T03:51:36;10.62;75.36
74946;HTU21D;63509;45.250;38.102;2023-04-24T03:54:19;10.66;75.37
74946;HTU21D;63509;45.250;38.102;2023-04-24T03:56:45;10.71;75.39
74946;HTU21D;63509;45.250;38.102;2023-04-24T03:59:12;10.75;75.38
74946;HTU21D;63509;45.250;38.102;2023-04-24T04:01:41;10.79;75.32
74946;HTU21D;63509;45.250;38.102;2023-04-24T04:04:13;10.82;75.36
74946;HTU21D;63509;45.250;38.102;2023-04-24T04:06:40;10.87;75.38
74946;HTU21D;63509;45.250;38.102;2023-04-24T04:09:07;10.94;75.41
74946;HTU21D;63509;45.250;38.102;2023-04-24T04:11:36;10.99;75.42
74946;HTU21D;63509;45.250;38.102;2023-04-24T04:14:02;11.03;75.41
74946;HTU21D;63509;45.250;38.102;2023-04-24T04:16:28;11.09;75.37
74946;HTU21D;63509;45.250;38.102;2023-04-24T04:19:00;11.15;75.47
74946;HTU21D;63509;45.250;38.102;2023-04-24T04:21:29;11.24;75.36
74946;HTU21D;63509;45.250;38.102;2023-04-24T04:24:06;11.30;75.28
74946;HTU21D;63509;45.250;38.102;2023-04-24T04:26:37;11.36;75.30
74946;HTU21D;63509;45.250;38.102;2023-04-24T04:29:07;11.41;75.30
74946;HTU21D;63509;45.250;38.102;2023-04-24T04:31:38;11.46;75.32
74946;HTU21D;63509;45.250;38.102;2023-04-24T04:34:09;11.56;75.36
74946;HTU21D;63509;45.250;38.102;2023-04-24T04:36:35;11.63;75.44
74946;HTU21D;63509;45.250;38.102;2023-04-24T04:39:13;11.74;75.52
74946;HTU21D;63509;45.250;38.102;2023-04-24T04:41:51;11.87;75.62
74946;HTU21D;63509;45.250;38.102;2023-04-24T04:44:20;11.98;75.55
74946;HTU21D;63509;45.250;38.102;2023-04-24T04:46:46;12.08;75.60
74946;HTU21D;63509;45.250;38.102;2023-04-24T04:49:21;12.20;75.46
74946;HTU21D;63509;45.250;38.102;2023-04-24T04:51:47;12.28;75.36
74946;HTU21D;63509;45.250;38.102;2023-04-24T04:54:14;12.36;75.25
74946;HTU21D;63509;45.250;38.102;2023-04-24T04:56:41;12.43;75.13
74946;HTU21D;63509;45.250;38.102;2023-04-24T04:59:07;12.49;75.06
74946;HTU21D;63509;45.250;38.102;2023-04-24T05:01:37;12.52;74.96
74946;HTU21D;63509;45.250;38.102;2023-04-24T05:04:03;12.57;74.89
74946;HTU21D;63509;45.250;38.102;2023-04-24T05:06:29;12.63;74.86
74946;HTU21D;63509;45.250;38.102;2023-04-24T05:08:56;12.65;74.85
74946;HTU21D;63509;45.250;38.102;2023-04-24T05:11:43;12.69;74.80
74946;HTU21D;63509;45.250;38.102;2023-04-24T05:14:09;12.73;74.88
74946;HTU21D;63509;45.250;38.102;2023-04-24T05:16:38;12.76;74.88
74946;HTU21D;63509;45.250;38.102;2023-04-24T05:19:06;12.81;74.81
74946;HTU21D;63509;45.250;38.102;2023-04-24T05:21:36;12.86;74.82
74946;HTU21D;63509;45.250;38.102;2023-04-24T05:24:02;12.91;74.81
74946;HTU21D;63509;45.250;38.102;2023-04-24T05:26:44;12.95;74.81
74946;HTU21D;63509;45.250;38.102;2023-04-24T05:29:12;13.00;74.80
74946;HTU21D;63509;45.250;38.102;2023-04-24T05:31:37;13.06;74.89
74946;HTU21D;63509;45.250;38.102;2023-04-24T05:34:04;13.12;74.90
74946;HTU21D;63509;45.250;38.102;2023-04-24T05:36:31;13.19;74.99
74946;HTU21D;63509;45.250;38.102;2023-04-24T05:38:57;13.26;75.10
74946;HTU21D;63509;45.250;38.102;2023-04-24T05:41:25;13.35;75.20
74946;HTU21D;63509;45.250;38.102;2023-04-24T05:43:51;13.47;75.41
74946;HTU21D;63509;45.250;38.102;2023-04-24T05:46:17;13.59;75.45
74946;HTU21D;63509;45.250;38.102;2023-04-24T05:48:44;13.68;75.36
74946;HTU21D;63509;45.250;38.102;2023-04-24T05:51:10;13.80;75.32
74946;HTU21D;63509;45.250;38.102;2023-04-24T05:53:36;13.92;75.19
74946;HTU21D;63509;45.250;38.102;2023-04-24T05:56:02;14.00;75.21
74946;HTU21D;63509;45.250;38.102;2023-04-24T05:58:29;14.10;75.15
74946;HTU21D;63509;45.250;38.102;2023-04-24T06:00:55;14.21;74.96
74946;HTU21D;63509;45.250;38.102;2023-04-24T06:03:23;14.29;74.74
74946;HTU21D;63509;45.250;38.102;2023-04-24T06:05:52;14.39;74.49
74946;HTU21D;63509;45.250;38.102;2023-04-24T06:08:21;14.48;74.50
74946;HTU21D;63509;45.250;38.102;2023-04-24T06:10:48;14.57;74.10
74946;HTU21D;63509;45.250;38.102;2023-04-24T06:13:16;14.64;73.93
74946;HTU21D;63509;45.250;38.102;2023-04-24T06:15:53;14.71;73.94
74946;HTU21D;63509;45.250;38.102;2023-04-24T06:18:29;14.81;73.92
74946;HTU21D;63509;45.250;38.102;2023-04-24T06:20:56;14.93;73.73
74946;HTU21D;63509;45.250;38.102;2023-04-24T06:23:23;15.02;73.22
74946;HTU21D;63509;45.250;38.102;2023-04-24T06:25:49;15.09;73.12
74946;HTU21D;63509;45.250;38.102;2023-04-24T06:28:15;15.16;72.92
74946;HTU21D;63509;45.250;38.102;2023-04-24T06:30:41;15.23;73.00
74946;HTU21D;63509;45.250;38.102;2023-04-24T06:33:07;15.33;73.04
74946;HTU21D;63509;45.250;38.102;2023-04-24T06:35:36;15.43;72.88
74946;HTU21D;63509;45.250;38.102;2023-04-24T06:38:03;15.56;72.78
74946;HTU21D;63509;45.250;38.102;2023-04-24T06:40:29;15.65;72.70
74946;HTU21D;63509;45.250;38.102;2023-04-24T06:42:56;15.73;72.41
74946;HTU21D;63509;45.250;38.102;2023-04-24T06:45:23;15.80;72.34
74946;HTU21D;63509;45.250;38.102;2023-04-24T06:47:49;15.86;72.33
74946;HTU21D;63509;45.250;38.102;2023-04-24T06:50:16;15.90;72.17
74946;HTU21D;63509;45.250;38.102;2023-04-24T06:52:42;15.91;71.90
74946;HTU21D;63509;45.250;38.102;2023-04-24T06:55:08;15.92;71.87
74946;HTU21D;63509;45.250;38.102;2023-04-24T06:57:34;15.92;71.74
74946;HTU21D;63509;45.250;38.102;2023-04-24T07:00:00;15.90;71.61
74946;HTU21D;63509;45.250;38.102;2023-04-24T07:02:26;15.89;71.64
74946;HTU21D;63509;45.250;38.102;2023-04-24T07:04:52;15.92;71.52
74946;HTU21D;63509;45.250;38.102;2023-04-24T07:07:18;15.91;71.25
74946;HTU21D;63509;45.250;38.102;2023-04-24T07:09:44;15.95;71.35
74946;HTU21D;63509;45.250;38.102;2023-04-24T07:12:11;15.96;71.34
74946;HTU21D;63509;45.250;38.102;2023-04-24T07:14:38;15.98;71.35
74946;HTU21D;63509;45.250;38.102;2023-04-24T07:17:04;16.00;71.19
74946;HTU21D;63509;45.250;38.102;2023-04-24T07:19:33;16.04;71.02
74946;HTU21D;63509;45.250;38.102;2023-04-24T07:22:01;16.04;70.48
74946;HTU21D;63509;45.250;38.102;2023-04-24T07:24:28;16.03;70.48
74946;HTU21D;63509;45.250;38.102;2023-04-24T07:26:54;16.02;70.73
74946;HTU21D;63509;45.250;38.102;2023-04-24T07:29:20;16.03;70.80
74946;HTU21D;63509;45.250;38.102;2023-04-24T07:31:47;16.03;71.07
74946;HTU21D;63509;45.250;38.102;2023-04-24T07:34:13;16.04;70.82
74946;HTU21D;63509;45.250;38.102;2023-04-24T07:36:39;16.01;71.27
74946;HTU21D;63509;45.250;38.102;2023-04-24T07:39:07;16.00;71.46
74946;HTU21D;63509;45.250;38.102;2023-04-24T07:41:33;16.01;71.55
74946;HTU21D;63509;45.250;38.102;2023-04-24T07:43:59;16.03;71.65
74946;HTU21D;63509;45.250;38.102;2023-04-24T07:46:26;16.05;72.25
74946;HTU21D;63509;45.250;38.102;2023-04-24T07:48:55;16.08;71.80
74946;HTU21D;63509;45.250;38.102;2023-04-24T07:51:21;16.14;71.82
74946;HTU21D;63509;45.250;38.102;2023-04-24T07:53:47;16.18;72.00
74946;HTU21D;63509;45.250;38.102;2023-04-24T07:56:13;16.22;72.02
74946;HTU21D;63509;45.250;38.102;2023-04-24T07:58:39;16.30;72.03
74946;HTU21D;63509;45.250;38.102;2023-04-24T08:01:06;16.34;71.38
74946;HTU21D;63509;45.250;38.102;2023-04-24T08:03:32;16.40;71.29
74946;HTU21D;63509;45.250;38.102;2023-04-24T08:05:58;16.43;71.18
74946;HTU21D;63509;45.250;38.102;2023-04-24T08:08:24;16.46;71.31
74946;HTU21D;63509;45.250;38.102;2023-04-24T08:10:51;16.48;70.78
74946;HTU21D;63509;45.250;38.102;2023-04-24T08:13:17;16.47;71.17
74946;HTU21D;63509;45.250;38.102;2023-04-24T08:15:43;16.47;71.21
74946;HTU21D;63509;45.250;38.102;2023-04-24T08:18:09;16.45;70.71
74946;HTU21D;63509;45.250;38.102;2023-04-24T08:20:37;16.39;70.77
74946;HTU21D;63509;45.250;38.102;2023-04-24T08:23:03;16.30;70.81
74946;HTU21D;63509;45.250;38.102;2023-04-24T08:25:29;16.24;70.45
74946;HTU21D;63509;45.250;38.102;2023-04-24T08:27:55;16.17;70.40
74946;HTU21D;63509;45.250;38.102;2023-04-24T08:30:21;16.12;70.18
74946;HTU21D;63509;45.250;38.102;2023-04-24T08:32:48;16.10;70.45
74946;HTU21D;63509;45.250;38.102;2023-04-24T08:35:14;16.11;70.61
74946;HTU21D;63509;45.250;38.102;2023-04-24T08:37:39;16.16;70.81
74946;HTU21D;63509;45.250;38.102;2023-04-24T08:40:16;16.26;70.87
74946;HTU21D;63509;45.250;38.102;2023-04-24T08:42:43;16.34;70.45
74946;HTU21D;63509;45.250;38.102;2023-04-24T08:45:11;16.44;70.81
74946;HTU21D;63509;45.250;38.102;2023-04-24T08:47:39;16.51;70.85
74946;HTU21D;63509;45.250;38.102;2023-04-24T08:50:06;16.60;70.58
74946;HTU21D;63509;45.250;38.102;2023-04-24T08:52:34;16.67;70.36
74946;HTU21D;63509;45.250;38.102;2023-04-24T08:55:00;16.73;70.08
74946;HTU21D;63509;45.250;38.102;2023-04-24T08:57:27;16.74;69.80
74946;HTU21D;63509;45.250;38.102;2023-04-24T08:59:54;16.75;69.48
74946;HTU21D;63509;45.250;38.102;2023-04-24T09:02:21;16.75;69.37
74946;HTU21D;63509;45.250;38.102;2023-04-24T09:04:47;16.73;69.21
74946;HTU21D;63509;45.250;38.102;2023-04-24T09:07:14;16.73;69.22
74946;HTU21D;63509;45.250;38.102;2023-04-24T09:09:42;16.71;69.13
74946;HTU21D;63509;45.250;38.102;2023-04-24T09:12:09;16.70;69.23
74946;HTU21D;63509;45.250;38.102;2023-04-24T09:14:36;16.69;69.21
74946;HTU21D;63509;45.250;38.102;2023-04-24T09:17:06;16.67;69.01
74946;HTU21D;63509;45.250;38.102;2023-04-24T09:19:32;16.65;69.16
74946;HTU21D;63509;45.250;38.102;2023-04-24T09:21:58;16.64;69.33
74946;HTU21D;63509;45.250;38.102;2023-04-24T09:24:24;16.61;69.34
74946;HTU21D;63509;45.250;38.102;2023-04-24T09:26:59;16.62;69.69
74946;HTU21D;63509;45.250;38.102;2023-04-24T09:29:27;16.60;70.12
74946;HTU21D;63509;45.250;38.102;2023-04-24T09:31:53;16.64;70.48
74946;HTU21D;63509;45.250;38.102;2023-04-24T09:34:24;16.67;70.35
74946;HTU21D;63509;45.250;38.102;2023-04-24T09:36:51;16.70;70.26
74946;HTU21D;63509;45.250;38.102;2023-04-24T09:39:18;16.73;69.84
74946;HTU21D;63509;45.250;38.102;2023-04-24T09:41:56;16.71;69.64
74946;HTU21D;63509;45.250;38.102;2023-04-24T09:44:27;16.71;69.45
74946;HTU21D;63509;45.250;38.102;2023-04-24T09:46:55;16.66;69.47
74946;HTU21D;63509;45.250;38.102;2023-04-24T09:49:25;16.63;69.43
74946;HTU21D;63509;45.250;38.102;2023-04-24T09:51:52;16.57;69.46
74946;HTU21D;63509;45.250;38.102;2023-04-24T09:54:20;16.48;69.30
74946;HTU21D;63509;45.250;38.102;2023-04-24T09:56:51;16.39;69.41
74946;HTU21D;63509;45.250;38.102;2023-04-24T09:59:18;16.28;69.56
74946;HTU21D;63509;45.250;38.102;2023-04-24T10:01:45;16.18;69.75
74946;HTU21D;63509;45.250;38.102;2023-04-24T10:04:22;16.10;69.89
74946;HTU21D;63509;45.250;38.102;2023-04-24T10:06:51;16.01;70.15
74946;HTU21D;63509;45.250;38.102;2023-04-24T10:09:18;15.93;70.48
74946;HTU21D;63509;45.250;38.102;2023-04-24T10:11:47;15.88;70.84
74946;HTU21D;63509;45.250;38.102;2023-04-24T10:14:16;15.82;70.87
74946;HTU21D;63509;45.250;38.102;2023-04-24T10:16:43;15.73;71.12
74946;HTU21D;63509;45.250;38.102;2023-04-24T10:19:09;15.69;71.52
74946;HTU21D;63509;45.250;38.102;2023-04-24T10:21:36;15.67;71.85
74946;HTU21D;63509;45.250;38.102;2023-04-24T10:24:10;15.65;71.94
74946;HTU21D;63509;45.250;38.102;2023-04-24T10:26:38;15.65;72.06
74946;HTU21D;63509;45.250;38.102;2023-04-24T10:29:06;15.62;72.03
74946;HTU21D;63509;45.250;38.102;2023-04-24T10:31:37;15.60;72.09
74946;HTU21D;63509;45.250;38.102;2023-04-24T10:34:05;15.58;72.27
74946;HTU21D;63509;45.250;38.102;2023-04-24T10:36:34;15.54;72.48
74946;HTU21D;63509;45.250;38.102;2023-04-24T10:39:02;15.52;72.67
74946;HTU21D;63509;45.250;38.102;2023-04-24T10:41:30;15.51;72.79
74946;HTU21D;63509;45.250;38.102;2023-04-24T10:44:10;15.52;72.81
74946;HTU21D;63509;45.250;38.102;2023-04-24T10:46:38;15.56;73.09
74946;HTU21D;63509;45.250;38.102;2023-04-24T10:49:05;15.59;73.01
74946;HTU21D;63509;45.250;38.102;2023-04-24T10:51:53;15.58;72.70
74946;HTU21D;63509;45.250;38.102;2023-04-24T10:56:51;15.46;73.05
74946;HTU21D;63509;45.250;38.102;2023-04-24T10:59:25;15.42;73.09
74946;HTU21D;63509;45.250;38.102;2023-04-24T11:01:55;15.36;73.35
74946;HTU21D;63509;45.250;38.102;2023-04-24T11:04:32;15.31;73.28
74946;HTU21D;63509;45.250;38.102;2023-04-24T11:06:58;15.24;73.63
74946;HTU21D;63509;45.250;38.102;2023-04-24T11:09:30;15.19;73.70
74946;HTU21D;63509;45.250;38.102;2023-04-24T11:12:07;15.14;73.81
74946;HTU21D;63509;45.250;38.102;2023-04-24T11:15:01;15.09;73.67
74946;HTU21D;63509;45.250;38.102;2023-04-24T11:17:37;15.03;74.15
74946;HTU21D;63509;45.250;38.102;2023-04-24T11:20:05;14.97;74.28
74946;HTU21D;63509;45.250;38.102;2023-04-24T11:22:39;14.92;74.48
74946;HTU21D;63509;45.250;38.102;2023-04-24T11:25:11;14.86;74.59
74946;HTU21D;63509;45.250;38.102;2023-04-24T11:27:42;14.81;74.78
74946;HTU21D;63509;45.250;38.102;2023-04-24T11:30:09;14.75;74.89
74946;HTU21D;63509;45.250;38.102;2023-04-24T11:32:41;14.70;74.94
74946;HTU21D;63509;45.250;38.102;2023-04-24T11:35:14;14.67;75.18
74946;HTU21D;63509;45.250;38.102;2023-04-24T11:37:45;14.60;75.28
74946;HTU21D;63509;45.250;38.102;2023-04-24T11:40:14;14.59;75.37
74946;HTU21D;63509;45.250;38.102;2023-04-24T11:42:54;14.55;75.28
74946;HTU21D;63509;45.250;38.102;2023-04-24T11:45:26;14.52;75.44
74946;HTU21D;63509;45.250;38.102;2023-04-24T11:47:53;14.51;75.65
74946;HTU21D;63509;45.250;38.102;2023-04-24T11:50:24;14.49;75.61
74946;HTU21D;63509;45.250;38.102;2023-04-24T11:52:51;14.45;75.72
74946;HTU21D;63509;45.250;38.102;2023-04-24T11:57:45;14.38;75.92
74946;HTU21D;63509;45.250;38.102;2023-04-24T12:00:16;14.36;75.93
74946;HTU21D;63509;45.250;38.102;2023-04-24T12:02:42;14.33;76.06
74946;HTU21D;63509;45.250;38.102;2023-04-24T12:05:09;14.30;76.16
74946;HTU21D;63509;45.250;38.102;2023-04-24T12:07:40;14.28;75.54
74946;HTU21D;63509;45.250;38.102;2023-04-24T12:10:08;14.25;75.97
74946;HTU21D;63509;45.250;38.102;2023-04-24T12:12:35;14.21;76.18
74946;HTU21D;63509;45.250;38.102;2023-04-24T12:15:01;14.20;76.30
74946;HTU21D;63509;45.250;38.102;2023-04-24T12:17:29;14.19;76.43
74946;HTU21D;63509;45.250;38.102;2023-04-24T12:20:04;14.19;76.36
74946;HTU21D;63509;45.250;38.102;2023-04-24T12:22:50;14.21;76.24
74946;HTU21D;63509;45.250;38.102;2023-04-24T12:25:18;14.20;76.50
74946;HTU21D;63509;45.250;38.102;2023-04-24T12:27:45;14.20;76.54
74946;HTU21D;63509;45.250;38.102;2023-04-24T12:30:14;14.21;76.59
74946;HTU21D;63509;45.250;38.102;2023-04-24T12:32:48;14.20;76.50
74946;HTU21D;63509;45.250;38.102;2023-04-24T12:35:23;14.20;76.54
74946;HTU21D;63509;45.250;38.102;2023-04-24T12:37:50;14.20;76.71
74946;HTU21D;63509;45.250;38.102;2023-04-24T12:40:17;14.18;76.75
74946;HTU21D;63509;45.250;38.102;2023-04-24T12:42:46;14.19;76.75
74946;HTU21D;63509;45.250;38.102;2023-04-24T12:45:12;14.19;76.82
74946;HTU21D;63509;45.250;38.102;2023-04-24T12:47:40;14.20;76.89
74946;HTU21D;63509;45.250;38.102;2023-04-24T12:50:08;14.18;76.82
74946;HTU21D;63509;45.250;38.102;2023-04-24T12:52:34;14.15;76.84
74946;HTU21D;63509;45.250;38.102;2023-04-24T12:55:01;14.15;76.89
74946;HTU21D;63509;45.250;38.102;2023-04-24T12:57:29;14.13;76.86
74946;HTU21D;63509;45.250;38.102;2023-04-24T12:59:56;14.12;76.85
74946;HTU21D;63509;45.250;38.102;2023-04-24T13:02:23;14.08;76.82
74946;HTU21D;63509;45.250;38.102;2023-04-24T13:04:49;14.06;76.86
74946;HTU21D;63509;45.250;38.102;2023-04-24T13:07:16;14.05;76.89
74946;HTU21D;63509;45.250;38.102;2023-04-24T13:09:43;14.03;76.94
74946;HTU21D;63509;45.250;38.102;2023-04-24T13:12:10;14.00;76.99
74946;HTU21D;63509;45.250;38.102;2023-04-24T13:14:37;13.98;77.11
74946;HTU21D;63509;45.250;38.102;2023-04-24T13:17:04;13.97;77.16
74946;HTU21D;63509;45.250;38.102;2023-04-24T13:19:36;13.94;77.17
74946;HTU21D;63509;45.250;38.102;2023-04-24T13:22:02;13.94;77.33
74946;HTU21D;63509;45.250;38.102;2023-04-24T13:24:29;13.92;77.35
74946;HTU21D;63509;45.250;38.102;2023-04-24T13:26:55;13.94;77.44
74946;HTU21D;63509;45.250;38.102;2023-04-24T13:29:22;13.93;77.52
74946;HTU21D;63509;45.250;38.102;2023-04-24T13:31:50;13.94;77.54
74946;HTU21D;63509;45.250;38.102;2023-04-24T13:34:16;13.95;77.60
74946;HTU21D;63509;45.250;38.102;2023-04-24T13:36:43;13.93;77.66
74946;HTU21D;63509;45.250;38.102;2023-04-24T13:39:09;13.94;77.67
74946;HTU21D;63509;45.250;38.102;2023-04-24T13:41:36;13.94;77.68
74946;HTU21D;63509;45.250;38.102;2023-04-24T13:44:03;13.94;77.70
74946;HTU21D;63509;45.250;38.102;2023-04-24T13:46:30;13.93;77.74
74946;HTU21D;63509;45.250;38.102;2023-04-24T13:48:56;13.93;77.82
74946;HTU21D;63509;45.250;38.102;2023-04-24T13:51:23;13.92;77.88
74946;HTU21D;63509;45.250;38.102;2023-04-24T13:53:49;13.91;77.92
74946;HTU21D;63509;45.250;38.102;2023-04-24T13:56:15;13.90;77.99
74946;HTU21D;63509;45.250;38.102;2023-04-24T13:58:41;13.88;78.04
74946;HTU21D;63509;45.250;38.102;2023-04-24T14:01:07;13.84;78.04
74946;HTU21D;63509;45.250;38.102;2023-04-24T14:03:33;13.80;78.16
74946;HTU21D;63509;45.250;38.102;2023-04-24T14:05:59;13.78;78.21
74946;HTU21D;63509;45.250;38.102;2023-04-24T14:08:26;13.77;78.24
74946;HTU21D;63509;45.250;38.102;2023-04-24T14:10:52;13.77;78.30
74946;HTU21D;63509;45.250;38.102;2023-04-24T14:13:18;13.76;78.36
74946;HTU21D;63509;45.250;38.102;2023-04-24T14:15:44;13.77;78.56
74946;HTU21D;63509;45.250;38.102;2023-04-24T14:18:10;13.77;78.56
74946;HTU21D;63509;45.250;38.102;2023-04-24T14:20:36;13.78;78.63
74946;HTU21D;63509;45.250;38.102;2023-04-24T14:23:02;13.81;78.78
74946;HTU21D;63509;45.250;38.102;2023-04-24T14:25:28;13.83;78.82
74946;HTU21D;63509;45.250;38.102;2023-04-24T14:27:54;13.85;78.84
74946;HTU21D;63509;45.250;38.102;2023-04-24T14:30:20;13.88;78.84
74946;HTU21D;63509;45.250;38.102;2023-04-24T14:32:46;13.89;78.85
74946;HTU21D;63509;45.250;38.102;2023-04-24T14:35:12;13.90;78.85
74946;HTU21D;63509;45.250;38.102;2023-04-24T14:37:39;13.90;78.95
74946;HTU21D;63509;45.250;38.102;2023-04-24T14:40:07;13.89;79.01
74946;HTU21D;63509;45.250;38.102;2023-04-24T14:42:34;13.90;78.95
74946;HTU21D;63509;45.250;38.102;2023-04-24T14:45:01;13.90;79.01
74946;HTU21D;63509;45.250;38.102;2023-04-24T14:47:27;13.91;79.07
74946;HTU21D;63509;45.250;38.102;2023-04-24T14:49:53;13.92;79.08
74946;HTU21D;63509;45.250;38.102;2023-04-24T14:52:19;13.92;79.21
74946;HTU21D;63509;45.250;38.102;2023-04-24T14:54:46;13.94;79.21
74946;HTU21D;63509;45.250;38.102;2023-04-24T14:57:12;13.96;79.21
74946;HTU21D;63509;45.250;38.102;2023-04-24T14:59:39;13.96;79.27
74946;HTU21D;63509;45.250;38.102;2023-04-24T15:02:06;13.96;79.17
74946;HTU21D;63509;45.250;38.102;2023-04-24T15:04:32;13.96;79.24
74946;HTU21D;63509;45.250;38.102;2023-04-24T15:06:58;13.95;79.20
74946;HTU21D;63509;45.250;38.102;2023-04-24T15:09:25;13.94;79.24
74946;HTU21D;63509;45.250;38.102;2023-04-24T15:11:53;13.95;79.17